createdAt,value
2023-03-21T00:01:53.183Z,15.48
2023-03-21T00:04:25.016Z,16.60
2023-03-21T00:06:51.895Z,16.05
2023-03-21T00:09:19.534Z,15.38
2023-03-21T00:11:46.665Z,16.70
2023-03-21T00:14:15.812Z,16.23
2023-03-21T00:16:45.773Z,15.25
2023-03-21T00:19:14.352Z,15.10
2023-03-21T00:24:29.817Z,15.65
2023-03-21T00:27:06.000Z,15.80
2023-03-21T00:29:42.883Z,16.33
2023-03-21T00:32:09.629Z,15.43
2023-03-21T00:34:43.380Z,15.35
2023-03-21T00:37:18.703Z,15.93
2023-03-21T00:39:49.017Z,14.52
2023-03-21T00:42:16.658Z,14.93
2023-03-21T00:44:44.732Z,16.17
2023-03-21T00:47:12.794Z,16.50
2023-03-21T00:49:40.472Z,16.48
2023-03-21T00:52:18.517Z,15.88
2023-03-21T00:54:49.515Z,15.45
2023-03-21T00:57:16.890Z,17.17
2023-03-21T00:59:43.730Z,15.90
2023-03-21T01:02:14.661Z,15.40
2023-03-21T01:04:41.595Z,14.50
2023-03-21T01:07:08.461Z,15.23
2023-03-21T01:09:35.237Z,16.15
2023-03-21T01:12:03.478Z,15.95
2023-03-21T01:14:30.357Z,16.95
2023-03-21T01:16:57.128Z,17.48
2023-03-21T01:19:40.648Z,17.65
2023-03-21T01:22:11.849Z,18.40
2023-03-21T01:24:50.209Z,17.67
2023-03-21T01:27:19.073Z,17.75
2023-03-21T01:29:45.905Z,19.17
2023-03-21T01:32:12.660Z,19.85
2023-03-21T01:34:39.404Z,19.60
2023-03-21T01:37:06.255Z,20.20
2023-03-21T01:39:34.850Z,19.75
2023-03-21T01:42:01.647Z,19.20
2023-03-21T01:44:28.957Z,18.85
2023-03-21T01:47:12.609Z,17.73
2023-03-21T01:49:45.954Z,15.80
2023-03-21T01:52:29.819Z,18.27
2023-03-21T01:55:05.373Z,18.95
2023-03-21T01:57:49.423Z,18.52
2023-03-21T02:00:29.495Z,19.58
2023-03-21T02:03:11.352Z,19.25
2023-03-21T02:05:52.622Z,17.95
2023-03-21T02:08:23.947Z,17.92
2023-03-21T02:10:51.797Z,19.73
2023-03-21T02:13:18.941Z,17.40
2023-03-21T02:15:59.851Z,19.15
2023-03-21T02:19:06.224Z,18.13
2023-03-21T02:21:57.652Z,17.13
2023-03-21T02:24:42.691Z,16.63
2023-03-21T02:27:21.753Z,16.63
2023-03-21T02:30:51.704Z,16.95
2023-03-21T02:33:52.599Z,16.15
2023-03-21T02:36:31.589Z,15.70
2023-03-21T02:39:13.743Z,15.20
2023-03-21T02:42:03.409Z,15.88
2023-03-21T02:45:11.548Z,15.43
2023-03-21T02:47:52.726Z,14.55
2023-03-21T02:50:34.037Z,15.00
2023-03-21T02:53:04.842Z,16.60
2023-03-21T02:55:34.873Z,15.35
2023-03-21T02:58:12.886Z,16.40
2023-03-21T03:00:44.025Z,15.63
2023-03-21T03:03:18.115Z,17.10
2023-03-21T03:05:59.098Z,16.20
2023-03-21T03:08:52.993Z,15.55
2023-03-21T03:11:42.105Z,14.48
2023-03-21T03:15:02.981Z,15.63
2023-03-21T03:17:52.627Z,14.85
2023-03-21T03:20:36.578Z,14.45
2023-03-21T03:23:59.726Z,15.35
2023-03-21T03:26:55.335Z,13.88
2023-03-21T03:29:25.986Z,14.10
2023-03-21T03:32:08.297Z,15.20
2023-03-21T03:34:43.224Z,14.32
2023-03-21T03:37:16.879Z,14.23
2023-03-21T03:39:54.003Z,16.55
2023-03-21T03:42:44.624Z,15.50
2023-03-21T03:45:12.255Z,14.18
2023-03-21T03:48:13.887Z,15.13
2023-03-21T03:51:21.510Z,14.20
2023-03-21T03:53:56.759Z,14.73
2023-03-21T03:56:25.386Z,13.88
2023-03-21T03:58:52.448Z,13.65
2023-03-21T04:01:19.241Z,14.07
2023-03-21T04:03:52.963Z,14.82
2023-03-21T04:06:24.284Z,14.38
2023-03-21T04:08:51.342Z,15.02
2023-03-21T04:11:18.163Z,13.95
2023-03-21T04:13:44.982Z,15.00
2023-03-21T04:16:12.834Z,15.27
2023-03-21T04:18:40.641Z,13.85
2023-03-21T04:21:12.762Z,13.90
2023-03-21T04:23:41.233Z,13.55
2023-03-21T04:26:08.496Z,14.60
2023-03-21T04:28:37.147Z,15.00
2023-03-21T04:31:24.199Z,15.57
2023-03-21T04:33:52.235Z,16.02
2023-03-21T04:36:26.368Z,15.40
2023-03-21T04:38:53.752Z,15.57
2023-03-21T04:41:20.900Z,14.95
2023-03-21T04:43:48.409Z,15.23
2023-03-21T04:46:15.526Z,15.63
2023-03-21T04:48:42.451Z,16.33
2023-03-21T04:51:09.329Z,16.67
2023-03-21T04:53:38.147Z,15.07
2023-03-21T04:56:06.662Z,16.63
2023-03-21T04:58:33.418Z,16.50
2023-03-21T05:01:02.431Z,16.58
2023-03-21T05:03:30.301Z,15.00
2023-03-21T05:05:57.912Z,15.25
2023-03-21T05:08:24.744Z,16.45
2023-03-21T05:10:51.544Z,15.85
2023-03-21T05:13:18.319Z,15.55
2023-03-21T05:15:45.056Z,16.42
2023-03-21T05:18:11.863Z,16.20
2023-03-21T05:20:43.699Z,15.88
2023-03-21T05:23:11.702Z,17.92
2023-03-21T05:25:39.748Z,16.23
2023-03-21T05:28:07.777Z,17.00
2023-03-21T05:30:34.837Z,16.48
2023-03-21T05:33:01.802Z,17.13
2023-03-21T05:35:28.699Z,17.17
2023-03-21T05:37:55.644Z,17.52
2023-03-21T05:40:22.456Z,16.30
2023-03-21T05:42:49.572Z,15.55
2023-03-21T05:45:16.653Z,15.00
2023-03-21T05:47:43.564Z,14.65
2023-03-21T05:50:13.492Z,15.15
2023-03-21T05:52:40.803Z,14.40
2023-03-21T05:55:08.195Z,14.18
2023-03-21T05:57:39.170Z,14.35
2023-03-21T06:00:08.337Z,13.68
2023-03-21T06:02:35.314Z,14.38
2023-03-21T06:05:02.146Z,13.85
2023-03-21T06:07:28.956Z,14.73
2023-03-21T06:09:55.750Z,14.57
2023-03-21T06:12:22.784Z,14.50
2023-03-21T06:14:49.599Z,15.00
2023-03-21T06:17:16.550Z,14.60
2023-03-21T06:19:43.326Z,14.07
2023-03-21T06:22:10.107Z,14.70
2023-03-21T06:24:36.921Z,14.95
2023-03-21T06:27:05.567Z,14.45
2023-03-21T06:29:32.343Z,13.95
2023-03-21T06:31:59.205Z,14.93
2023-03-21T06:34:26.653Z,15.75
2023-03-21T06:36:54.643Z,15.88
2023-03-21T06:39:21.817Z,15.75
2023-03-21T06:41:48.604Z,14.95
2023-03-21T06:44:15.424Z,16.90
2023-03-21T06:46:42.838Z,16.48
2023-03-21T06:49:09.625Z,15.98
2023-03-21T06:51:37.391Z,16.20
2023-03-21T06:54:04.256Z,16.50
2023-03-21T06:56:31.033Z,17.40
2023-03-21T06:58:57.784Z,15.45
2023-03-21T07:01:27.499Z,16.15
2023-03-21T07:03:57.372Z,14.57
2023-03-21T07:06:26.507Z,16.15
2023-03-21T07:08:54.958Z,15.30
2023-03-21T07:11:22.651Z,15.75
2023-03-21T07:13:50.267Z,15.65
2023-03-21T07:16:18.372Z,16.77
2023-03-21T07:18:45.391Z,16.23
2023-03-21T07:21:12.227Z,14.27
2023-03-21T07:23:40.056Z,14.02
2023-03-21T07:26:08.143Z,14.93
2023-03-21T07:28:35.197Z,14.05
2023-03-21T07:31:06.509Z,14.23
2023-03-21T07:33:33.904Z,14.57
2023-03-21T07:36:00.732Z,14.57
2023-03-21T07:38:27.795Z,13.27
2023-03-21T07:40:54.576Z,13.50
2023-03-21T07:43:21.517Z,14.23
2023-03-21T07:45:48.345Z,13.48
2023-03-21T07:48:17.342Z,14.20
2023-03-21T07:50:44.148Z,14.15
2023-03-21T07:53:10.888Z,14.38
2023-03-21T07:55:37.892Z,14.07
2023-03-21T07:58:05.749Z,14.05
2023-03-21T08:00:33.262Z,13.98
2023-03-21T08:03:00.959Z,13.73
2023-03-21T08:05:37.010Z,13.98
2023-03-21T08:08:05.548Z,13.45
2023-03-21T08:10:32.643Z,13.93
2023-03-21T08:12:59.433Z,14.38
2023-03-21T08:15:26.449Z,14.32
2023-03-21T08:17:53.373Z,13.18
2023-03-21T08:20:23.446Z,13.40
2023-03-21T08:22:50.730Z,13.50
2023-03-21T08:25:20.192Z,13.18
2023-03-21T08:27:48.167Z,13.48
2023-03-21T08:30:19.185Z,14.57
2023-03-21T08:32:46.402Z,15.85
2023-03-21T08:35:16.706Z,14.65
2023-03-21T08:37:43.709Z,17.35
2023-03-21T08:40:15.644Z,17.38
2023-03-21T08:42:43.679Z,17.27
2023-03-21T08:45:11.688Z,16.30
2023-03-21T08:47:38.960Z,16.30
2023-03-21T08:50:10.213Z,16.58
2023-03-21T08:52:37.164Z,16.80
2023-03-21T08:55:05.435Z,14.07
2023-03-21T08:57:32.270Z,14.35
2023-03-21T08:59:59.022Z,14.68
2023-03-21T09:02:25.780Z,14.48
2023-03-21T09:04:59.101Z,12.93
2023-03-21T09:07:26.586Z,13.90
2023-03-21T09:10:02.995Z,13.57
2023-03-21T09:12:41.138Z,13.25
2023-03-21T09:15:11.944Z,13.20
2023-03-21T09:17:42.361Z,13.13
2023-03-21T09:20:18.683Z,13.40
2023-03-21T09:22:51.015Z,13.30
2023-03-21T09:25:19.329Z,13.20
2023-03-21T09:27:46.282Z,11.75
2023-03-21T09:30:16.950Z,12.20
2023-03-21T09:32:48.488Z,13.13
2023-03-21T09:35:18.776Z,11.95
2023-03-21T09:37:47.282Z,12.98
2023-03-21T09:40:57.133Z,13.15
2023-03-21T09:43:44.456Z,11.82
2023-03-21T09:46:28.114Z,12.85
2023-03-21T09:49:07.878Z,11.93
2023-03-21T09:51:40.408Z,12.85
2023-03-21T09:54:18.988Z,11.90
2023-03-21T09:56:47.207Z,12.10
2023-03-21T09:59:33.817Z,12.30
2023-03-21T10:02:01.762Z,10.45
2023-03-21T10:04:29.501Z,10.95
2023-03-21T10:07:02.523Z,11.20
2023-03-21T10:09:32.514Z,12.30
2023-03-21T10:12:09.166Z,11.05
2023-03-21T10:14:44.334Z,11.30
2023-03-21T10:17:43.435Z,10.90
2023-03-21T10:20:31.325Z,10.68
2023-03-21T10:23:01.569Z,10.25
2023-03-21T10:25:39.815Z,11.50
2023-03-21T10:28:15.328Z,10.57
2023-03-21T10:30:47.125Z,10.23
2023-03-21T10:33:20.364Z,9.85
2023-03-21T10:35:56.280Z,10.27
2023-03-21T10:38:25.917Z,10.40
2023-03-21T10:40:54.002Z,9.57
2023-03-21T10:43:26.731Z,10.27
2023-03-21T10:45:55.562Z,10.13
2023-03-21T10:48:24.023Z,10.82
2023-03-21T10:50:54.967Z,10.60
2023-03-21T10:53:28.096Z,10.93
2023-03-21T10:55:58.891Z,10.75
2023-03-21T10:58:39.514Z,11.00
2023-03-21T11:01:13.293Z,10.73
2023-03-21T11:03:43.676Z,9.85
2023-03-21T11:06:27.778Z,9.93
2023-03-21T11:09:01.020Z,9.70
2023-03-21T11:11:40.934Z,10.57
2023-03-21T11:14:33.967Z,10.25
2023-03-21T11:17:01.080Z,9.95
2023-03-21T11:19:34.277Z,9.57
2023-03-21T11:22:07.258Z,10.48
2023-03-21T11:24:35.664Z,9.07
2023-03-21T11:27:07.672Z,9.35
2023-03-21T11:29:41.080Z,9.32
2023-03-21T11:32:21.240Z,8.70
2023-03-21T11:35:18.254Z,9.38
2023-03-21T11:37:53.202Z,9.13
2023-03-21T11:40:30.904Z,8.23
2023-03-21T11:43:01.226Z,8.38
2023-03-21T11:45:36.053Z,8.98
2023-03-21T11:48:12.719Z,8.30
2023-03-21T11:50:45.509Z,8.55
2023-03-21T11:53:48.123Z,8.13
2023-03-21T11:56:39.483Z,8.15
2023-03-21T11:59:35.787Z,7.78
2023-03-21T12:02:59.111Z,8.13
2023-03-21T12:05:54.716Z,8.07
2023-03-21T12:08:54.430Z,7.45
2023-03-21T12:12:07.521Z,7.65
2023-03-21T12:15:01.489Z,8.60
2023-03-21T12:17:51.066Z,7.38
2023-03-21T12:20:53.697Z,9.40
2023-03-21T12:23:45.037Z,7.53
2023-03-21T12:26:29.681Z,8.68
2023-03-21T12:32:19.883Z,7.60
2023-03-21T12:35:09.653Z,7.55
2023-03-21T12:37:57.358Z,9.13
2023-03-21T12:40:55.691Z,9.15
2023-03-21T12:43:49.041Z,9.43
2023-03-21T12:46:39.636Z,8.98
2023-03-21T12:49:32.201Z,9.35
2023-03-21T12:52:12.138Z,8.90
2023-03-21T12:54:49.588Z,8.98
2023-03-21T12:57:25.108Z,9.88
2023-03-21T13:00:13.485Z,10.10
2023-03-21T13:03:10.719Z,10.05
2023-03-21T13:05:58.355Z,10.65
2023-03-21T13:08:41.925Z,9.75
2023-03-21T13:11:14.266Z,11.02
2023-03-21T13:13:56.120Z,10.82
2023-03-21T13:16:49.644Z,10.02
2023-03-21T13:19:42.563Z,10.50
2023-03-21T13:22:29.902Z,9.75
2023-03-21T13:25:19.158Z,11.02
2023-03-21T13:27:55.891Z,9.45
2023-03-21T13:30:28.611Z,9.80
2023-03-21T13:33:13.567Z,9.75
2023-03-21T13:35:43.695Z,9.52
2023-03-21T13:38:26.675Z,10.93
2023-03-21T13:41:01.388Z,11.25
2023-03-21T13:43:55.359Z,11.32
2023-03-21T13:46:25.330Z,10.50
2023-03-21T13:49:15.389Z,10.63
2023-03-21T13:51:46.251Z,10.02
2023-03-21T13:54:15.298Z,10.05
2023-03-21T13:56:45.823Z,9.65
2023-03-21T13:59:36.702Z,8.88
2023-03-21T14:02:30.187Z,8.82
2023-03-21T14:05:19.059Z,10.07
2023-03-21T14:07:50.097Z,9.98
2023-03-21T14:10:25.053Z,8.75
2023-03-21T14:12:53.141Z,9.32
2023-03-21T14:15:27.823Z,9.73
2023-03-21T14:18:10.808Z,9.13
2023-03-21T14:20:56.879Z,8.45
2023-03-21T14:23:24.713Z,8.65
2023-03-21T14:25:52.617Z,8.13
2023-03-21T14:28:28.516Z,8.52
2023-03-21T14:31:00.036Z,8.18
2023-03-21T14:33:36.566Z,8.48
2023-03-21T14:36:14.204Z,9.27
2023-03-21T14:38:41.601Z,8.38
2023-03-21T14:41:28.127Z,9.07
2023-03-21T14:44:14.631Z,9.05
2023-03-21T14:46:42.536Z,8.85
2023-03-21T14:49:20.290Z,10.05
2023-03-21T14:51:50.680Z,9.70
2023-03-21T14:54:18.405Z,9.35
2023-03-21T14:56:50.671Z,9.05
2023-03-21T14:59:23.007Z,9.82
2023-03-21T15:01:52.470Z,9.63
2023-03-21T15:04:21.349Z,8.98
2023-03-21T15:06:56.522Z,9.68
2023-03-21T15:09:27.364Z,10.25
2023-03-21T15:11:56.884Z,9.10
2023-03-21T15:14:34.603Z,9.02
2023-03-21T15:17:07.594Z,8.95
2023-03-21T15:19:39.453Z,8.57
2023-03-21T15:22:33.190Z,8.43
2023-03-21T15:25:08.149Z,8.63
2023-03-21T15:27:43.190Z,8.20
2023-03-21T15:30:28.390Z,8.65
2023-03-21T15:32:56.751Z,8.15
2023-03-21T15:35:44.471Z,8.80
2023-03-21T15:38:33.412Z,8.02
2023-03-21T15:41:18.924Z,9.25
2023-03-21T15:43:48.248Z,8.52
2023-03-21T15:46:18.448Z,8.27
2023-03-21T15:48:45.413Z,8.07
2023-03-21T15:51:23.611Z,8.25
2023-03-21T15:53:54.083Z,7.72
2023-03-21T15:56:22.747Z,7.90
2023-03-21T15:58:52.605Z,6.07
2023-03-21T16:01:22.238Z,6.57
2023-03-21T16:03:57.503Z,6.60
2023-03-21T16:06:33.641Z,6.07
2023-03-21T16:09:25.766Z,5.88
2023-03-21T16:11:59.714Z,5.82
2023-03-21T16:14:27.831Z,5.72
2023-03-21T16:16:55.080Z,5.28
2023-03-21T16:19:23.133Z,5.68
2023-03-21T16:21:50.048Z,6.53
2023-03-21T16:24:16.861Z,5.53
2023-03-21T16:26:51.962Z,6.45
2023-03-21T16:29:19.790Z,5.50
2023-03-21T16:31:48.416Z,6.00
2023-03-21T16:34:15.303Z,6.13
2023-03-21T16:36:43.359Z,7.25
2023-03-21T16:39:21.516Z,5.72
2023-03-21T16:41:48.714Z,5.85
2023-03-21T16:44:15.555Z,6.03
2023-03-21T16:46:42.561Z,6.13
2023-03-21T16:49:24.568Z,5.72
2023-03-21T16:51:53.359Z,5.40
2023-03-21T16:54:20.873Z,5.57
2023-03-21T16:56:53.892Z,5.78
2023-03-21T16:59:21.602Z,5.53
2023-03-21T17:01:49.548Z,5.95
2023-03-21T17:04:18.153Z,5.57
2023-03-21T17:06:51.650Z,5.57
2023-03-21T17:09:22.382Z,4.87
2023-03-21T17:11:49.489Z,4.68
2023-03-21T17:14:21.364Z,4.70
2023-03-21T17:16:48.690Z,5.10
2023-03-21T17:19:26.293Z,4.90
2023-03-21T17:21:53.175Z,4.70
2023-03-21T17:24:20.003Z,5.25
2023-03-21T17:26:46.756Z,5.00
2023-03-21T17:29:14.790Z,5.18
2023-03-21T17:31:42.467Z,5.03
2023-03-21T17:34:09.671Z,5.13
2023-03-21T17:36:39.803Z,4.93
2023-03-21T17:39:12.803Z,4.68
2023-03-21T17:41:39.737Z,5.05
2023-03-21T17:44:07.502Z,5.10
2023-03-21T17:46:37.126Z,5.10
2023-03-21T17:49:05.415Z,5.28
2023-03-21T17:51:33.060Z,4.93
2023-03-21T17:54:00.345Z,5.18
2023-03-21T17:56:31.013Z,4.82
2023-03-21T17:59:05.032Z,5.22
2023-03-21T18:01:32.142Z,5.28
2023-03-21T18:04:02.733Z,5.50
2023-03-21T18:06:29.688Z,4.53
2023-03-21T18:08:57.234Z,4.85
2023-03-21T18:11:24.537Z,4.47
2023-03-21T18:14:03.592Z,4.57
2023-03-21T18:16:37.017Z,5.25
2023-03-21T18:19:03.888Z,4.50
2023-03-21T18:21:32.912Z,4.60
2023-03-21T18:23:59.823Z,4.93
2023-03-21T18:26:26.608Z,4.10
2023-03-21T18:29:43.980Z,3.40
2023-03-21T18:31:40.324Z,3.35
2023-03-21T18:34:07.196Z,3.28
2023-03-21T18:36:34.408Z,2.92
2023-03-21T18:39:03.389Z,3.20
2023-03-21T18:41:30.544Z,3.15
2023-03-21T18:44:05.570Z,3.00
2023-03-21T18:46:47.105Z,2.80
2023-03-21T18:49:58.959Z,2.95
2023-03-21T18:52:02.439Z,2.92
2023-03-21T18:54:30.061Z,2.80
2023-03-21T18:57:33.765Z,2.83
2023-03-21T18:59:44.524Z,2.40
2023-03-21T19:02:13.946Z,2.40
2023-03-21T19:04:41.074Z,2.33
2023-03-21T19:07:08.579Z,2.72
2023-03-21T19:09:58.327Z,2.63
2023-03-21T19:12:23.931Z,2.60
2023-03-21T19:14:50.773Z,2.65
2023-03-21T19:18:19.341Z,2.25
2023-03-21T19:20:05.704Z,2.50
2023-03-21T19:22:32.545Z,2.80
2023-03-21T19:24:59.327Z,2.50
2023-03-21T19:27:26.950Z,2.40
2023-03-21T19:30:10.726Z,2.28
2023-03-21T19:32:39.693Z,2.80
2023-03-21T19:35:07.355Z,2.60
2023-03-21T19:37:36.196Z,2.92
2023-03-21T19:40:05.611Z,2.47
2023-03-21T19:42:32.507Z,2.28
2023-03-21T19:44:59.418Z,2.50
2023-03-21T19:47:26.451Z,2.75
2023-03-21T19:52:40.999Z,2.45
2023-03-21T19:55:08.306Z,2.38
2023-03-21T19:57:36.210Z,2.38
2023-03-21T20:00:04.306Z,3.38
2023-03-21T20:02:36.645Z,2.72
2023-03-21T20:05:08.472Z,2.60
2023-03-21T20:07:35.410Z,2.33
2023-03-21T20:10:02.326Z,2.13
2023-03-21T20:12:29.313Z,2.55
2023-03-21T20:15:15.692Z,2.88
2023-03-21T20:17:43.886Z,2.80
2023-03-21T20:20:14.492Z,2.83
2023-03-21T20:25:29.509Z,2.33
2023-03-21T20:28:12.895Z,2.38
2023-03-21T20:30:50.716Z,1.90
2023-03-21T20:33:17.704Z,2.42
2023-03-21T20:36:29.412Z,2.28
2023-03-21T20:38:33.427Z,2.78
2023-03-21T20:41:01.883Z,2.15
2023-03-21T20:44:20.478Z,2.38
2023-03-21T20:46:16.507Z,2.10
2023-03-21T20:48:43.366Z,2.35
2023-03-21T20:52:14.819Z,2.75
2023-03-21T20:53:59.016Z,2.22
2023-03-21T20:56:25.793Z,2.60
2023-03-21T20:59:07.951Z,2.70
2023-03-21T21:01:35.030Z,2.50
2023-03-21T21:04:01.905Z,2.63
2023-03-21T21:06:28.852Z,3.05
2023-03-21T21:08:55.798Z,2.85
2023-03-21T21:14:10.209Z,3.47
2023-03-21T21:16:37.124Z,2.30
2023-03-21T21:19:03.938Z,3.17
2023-03-21T21:21:31.596Z,3.00
2023-03-21T21:23:58.612Z,2.80
2023-03-21T21:26:25.404Z,3.55
2023-03-21T21:28:53.148Z,2.40
2023-03-21T21:31:20.376Z,2.85
2023-03-21T21:33:50.005Z,2.85
2023-03-21T21:36:17.103Z,2.83
2023-03-21T21:38:44.123Z,3.00
2023-03-21T21:41:19.191Z,2.95
2023-03-21T21:43:46.824Z,3.05
2023-03-21T21:46:14.430Z,2.75
2023-03-21T21:48:41.788Z,3.05
2023-03-21T21:51:09.105Z,3.13
2023-03-21T21:53:36.475Z,2.97
2023-03-21T21:56:06.878Z,3.70
2023-03-21T21:58:34.048Z,4.88
2023-03-21T22:01:01.785Z,3.20
2023-03-21T22:03:36.329Z,3.80
2023-03-21T22:06:04.558Z,3.65
2023-03-21T22:08:31.557Z,2.90
2023-03-21T22:11:00.975Z,3.58
2023-03-21T22:13:28.178Z,2.80
2023-03-21T22:15:55.255Z,3.20
2023-03-21T22:18:22.412Z,3.53
2023-03-21T22:20:49.188Z,3.70
2023-03-21T22:23:16.158Z,3.92
2023-03-21T22:25:49.273Z,3.78
2023-03-21T22:28:17.761Z,3.47
2023-03-21T22:30:44.532Z,3.13
2023-03-21T22:33:11.276Z,3.42
2023-03-21T22:35:38.393Z,2.80
2023-03-21T22:38:05.283Z,3.85
2023-03-21T22:40:32.095Z,3.58
2023-03-21T22:42:58.891Z,3.70
2023-03-21T22:45:25.796Z,3.55
2023-03-21T22:47:53.447Z,3.75
2023-03-21T22:50:20.287Z,4.20
2023-03-21T22:52:47.091Z,3.20
2023-03-21T22:55:14.281Z,3.13
2023-03-21T22:57:41.069Z,4.05
2023-03-21T23:00:13.346Z,3.78
2023-03-21T23:02:41.386Z,3.88
2023-03-21T23:05:09.834Z,4.03
2023-03-21T23:07:36.642Z,3.90
2023-03-21T23:10:05.367Z,3.75
2023-03-21T23:12:32.548Z,4.10
2023-03-21T23:15:00.445Z,4.43
2023-03-21T23:17:28.135Z,4.32
2023-03-21T23:19:54.915Z,4.13
2023-03-21T23:22:21.672Z,3.95
2023-03-21T23:24:49.021Z,3.95
2023-03-21T23:27:18.083Z,3.92
2023-03-21T23:29:45.309Z,5.00
2023-03-21T23:32:12.110Z,3.80
2023-03-21T23:34:38.893Z,3.90
2023-03-21T23:37:06.808Z,3.80
2023-03-21T23:39:34.303Z,4.47
2023-03-21T23:42:01.412Z,3.90
2023-03-21T23:44:28.414Z,3.85
2023-03-21T23:46:55.377Z,4.03
2023-03-21T23:49:22.146Z,3.90
2023-03-21T23:51:49.950Z,4.03
2023-03-21T23:54:16.849Z,4.25
2023-03-21T23:56:43.853Z,4.20
2023-03-21T23:59:10.797Z,4.03
